Time;durP1;ratioP1;P1;durP2;ratioP2;P2;SDS_P1;SDS_P2;PMS_P1;PMS_P2;Temp;Humidity;BMP_temperature;BMP_pressure;BME280_temperature;BME280_humidity;BME280_pressure;Samples;Min_cycle;Max_cycle;Signal;HPM_P1;HPM_P2
2023/10/02 01:13:29;;;;;;;5.10;2.20;;;;;;;8.95;82.77;99370.48;105934;1252;61796;-23
2023/10/02 01:15:57;;;;;;;5.80;2.10;;;;;;;8.59;84.15;99373.67;105962;1256;61168;-23
2023/10/02 01:18:27;;;;;;;5.10;1.50;;;;;;;8.38;85.21;99373.27;105864;1254;74022;-22
2023/10/02 01:20:56;;;;;;;2.60;1.60;;;;;;;8.75;85.40;99371.88;105577;1258;74172;-22
2023/10/02 01:23:25;;;;;;;3.60;1.90;;;;;;;9.19;83.90;99374.95;105669;1256;71107;-23
2023/10/02 01:25:57;;;;;;;5.80;1.90;;;;;;;9.17;82.84;99377.27;105678;1256;61154;-23
2023/10/02 01:28:25;;;;;;;5.90;2.10;;;;;;;8.95;83.43;99377.07;105846;1256;61161;-22
2023/10/02 01:30:55;;;;;;;5.30;2.30;;;;;;;8.69;84.62;99378.16;105658;1260;72392;-23
2023/10/02 01:33:26;;;;;;;10.00;2.30;;;;;;;8.44;85.83;99379.45;105603;1258;74253;-23
2023/10/02 01:35:55;;;;;;;6.50;1.70;;;;;;;8.26;86.92;99380.99;105752;1253;72728;-22
2023/10/02 01:38:34;;;;;;;3.40;1.60;;;;;;;8.71;86.60;99380.43;105455;1253;61059;-23
2023/10/02 01:41:05;;;;;;;9.50;2.20;;;;;;;9.16;84.57;99382.73;105352;1257;61162;-23
2023/10/02 01:43:45;;;;;;;6.40;2.50;;;;;;;9.15;83.72;99384.23;105322;1260;73605;-23
2023/10/02 01:46:17;;;;;;;6.30;2.60;;;;;;;8.89;84.13;99387.75;105740;1258;74255;-23
2023/10/02 01:48:44;;;;;;;5.20;2.00;;;;;;;8.59;85.12;99390.09;105422;1257;71299;-23
2023/10/02 01:51:27;;;;;;;8.80;2.60;;;;;;;8.33;86.31;99391.32;105747;1253;61175;-23
2023/10/02 01:53:57;;;;;;;2.90;1.40;;;;;;;8.13;87.89;99394.66;105475;1258;61177;-22
2023/10/02 01:56:29;;;;;;;8.50;2.20;;;;;;;8.63;87.28;99392.05;105586;1258;73503;-23
2023/10/02 01:59:10;;;;;;;5.10;2.20;;;;;;;9.02;85.00;99393.89;105479;1257;74372;-23
2023/10/02 02:01:51;;;;;;;10.30;2.30;;;;;;;8.97;84.25;99397.39;105706;1254;72722;-23
2023/10/02 02:04:23;;;;;;;6.10;2.10;;;;;;;8.73;84.45;99399.21;105626;1254;61061;-23
2023/10/02 02:06:52;;;;;;;5.40;2.30;;;;;;;8.44;85.48;99400.41;105679;1255;61150;-23
2023/10/02 02:09:25;;;;;;;5.30;2.70;;;;;;;8.16;86.55;99397.42;105507;1259;74492;-23
2023/10/02 02:12:07;;;;;;;8.70;1.90;;;;;;;7.95;87.96;99397.93;105870;1254;72780;-23
2023/10/02 02:14:41;;;;;;;7.00;2.00;;;;;;;8.45;87.32;99399.64;105837;1251;71240;-23
2023/10/02 02:17:10;;;;;;;7.70;2.20;;;;;;;8.86;85.27;99400.20;105869;1255;61123;-23
2023/10/02 02:19:44;;;;;;;6.10;2.20;;;;;;;8.81;84.22;99402.61;105857;1257;61875;-23
2023/10/02 02:22:11;;;;;;;4.80;2.50;;;;;;;8.56;84.59;99401.17;105858;1251;73692;-23
2023/10/02 02:24:38;;;;;;;5.50;2.10;;;;;;;8.28;85.13;99396.44;105842;1254;74301;-23
2023/10/02 02:27:07;;;;;;;4.90;2.40;;;;;;;8.01;86.54;99398.02;105873;1253;72471;-22
2023/10/02 02:29:34;;;;;;;6.60;1.50;;;;;;;7.81;87.47;99401.92;105732;1254;61912;-22
2023/10/02 02:32:02;;;;;;;6.10;1.80;;;;;;;8.19;87.45;99406.71;105972;1254;61179;-22
2023/10/02 02:34:30;;;;;;;6.50;2.00;;;;;;;8.65;85.60;99404.75;105945;1251;73766;-23
2023/10/02 02:36:57;;;;;;;4.90;2.20;;;;;;;8.63;84.66;99409.52;105917;1256;74479;-22
2023/10/02 02:39:27;;;;;;;5.10;2.00;;;;;;;8.42;85.27;99405.40;105785;1252;71476;-22
2023/10/02 02:44:50;;;;;;;4.10;2.10;;;;;;;7.85;86.87;99410.48;105898;1256;61142;-22
2023/10/02 02:47:20;;;;;;;3.70;1.70;;;;;;;7.64;88.02;99415.77;105834;1257;73789;-23
2023/10/02 02:50:00;;;;;;;7.10;2.30;;;;;;;8.10;88.22;99411.13;105945;1252;74234;-22
2023/10/02 02:52:32;;;;;;;4.90;2.20;;;;;;;8.56;86.05;99411.91;105935;1251;72671;-22
2023/10/02 02:55:12;;;;;;;5.40;2.40;;;;;;;8.54;85.10;99417.94;105911;1251;61058;-22
2023/10/02 02:57:45;;;;;;;4.60;2.20;;;;;;;8.26;85.79;99419.58;105998;1257;61079;-22
2023/10/02 03:00:31;;;;;;;4.40;2.00;;;;;;;7.99;86.97;99420.14;105951;1257;73756;-22
2023/10/02 03:03:00;;;;;;;6.60;2.20;;;;;;;7.75;88.46;99428.00;105933;1256;74186;-23
2023/10/02 03:05:37;;;;;;;3.20;1.60;;;;;;;8.16;88.47;99425.27;105827;1255;71125;-24
2023/10/02 03:08:05;;;;;;;4.80;2.10;;;;;;;8.57;86.24;99420.18;105927;1253;61086;-23
2023/10/02 03:10:39;;;;;;;5.60;2.30;;;;;;;8.54;85.52;99421.77;105870;1256;61024;-22
2023/10/02 03:13:15;;;;;;;7.10;2.10;;;;;;;8.33;86.01;99418.61;105882;1257;73840;-22
2023/10/02 03:15:46;;;;;;;4.80;2.40;;;;;;;8.09;86.85;99418.77;105782;1257;74801;-23
2023/10/02 03:18:23;;;;;;;5.50;1.60;;;;;;;7.88;87.39;99419.09;105621;1260;72652;-22
2023/10/02 03:20:50;;;;;;;5.90;3.00;;;;;;;8.26;87.35;99415.41;105706;1254;61041;-22
2023/10/02 03:23:18;;;;;;;5.70;2.20;;;;;;;8.68;85.32;99413.52;105897;1254;61083;-22
2023/10/02 03:25:47;;;;;;;6.90;2.50;;;;;;;8.62;84.43;99417.23;105958;1251;73831;-23
2023/10/02 03:28:32;;;;;;;4.40;2.30;;;;;;;8.39;84.81;99420.11;105839;1251;72910;-23
2023/10/02 03:31:00;;;;;;;5.60;2.60;;;;;;;8.07;85.42;99423.20;105807;1257;73059;-23
2023/10/02 03:33:31;;;;;;;7.40;2.60;;;;;;;7.78;86.49;99428.36;105774;1251;61182;-23
2023/10/02 03:36:08;;;;;;;6.30;2.00;;;;;;;7.58;87.64;99429.98;105695;1257;61184;-22
2023/10/02 03:38:42;;;;;;;6.30;2.20;;;;;;;8.04;87.81;99431.05;105814;1251;73807;-23
2023/10/02 03:41:13;;;;;;;7.40;2.60;;;;;;;8.49;85.77;99427.27;105722;1257;73407;-23
2023/10/02 03:43:43;;;;;;;4.10;2.30;;;;;;;8.46;85.15;99432.66;105604;1255;71435;-23
2023/10/02 03:46:35;;;;;;;6.00;2.70;;;;;;;8.24;85.42;99436.70;103545;1255;2985845;-22
2023/10/02 03:49:04;;;;;;;4.40;2.30;;;;;;;7.93;86.29;99438.13;105877;1257;61827;-23
2023/10/02 03:51:40;;;;;;;9.10;2.30;;;;;;;7.69;87.34;99438.07;105743;1257;73947;-23
2023/10/02 03:54:17;;;;;;;4.50;2.40;;;;;;;8.01;87.32;99439.31;105870;1253;74241;-23
2023/10/02 03:56:47;;;;;;;6.30;2.80;;;;;;;8.43;85.73;99439.42;105697;1256;73122;-23
2023/10/02 03:59:21;;;;;;;6.10;2.20;;;;;;;8.36;84.77;99438.84;105704;1251;61137;-22
2023/10/02 04:01:49;;;;;;;;;;;;;;;8.09;85.45;99440.03;105938;1257;61260;-22
2023/10/02 04:06:44;;;;;;;5.70;2.80;;;;;;;7.52;86.98;99441.59;105911;1253;74147;-22
2023/10/02 04:11:39;;;;;;;5.90;2.10;;;;;;;7.71;88.94;99445.73;105705;1251;61071;-22
2023/10/02 04:14:18;;;;;;;4.70;2.40;;;;;;;8.18;87.17;99443.46;105587;1259;61160;-22
2023/10/02 04:16:51;;;;;;;7.10;2.80;;;;;;;8.17;86.36;99448.36;105715;1258;73585;-22
2023/10/02 04:19:25;;;;;;;5.10;2.70;;;;;;;7.96;86.53;99452.65;105718;1251;74318;-22
2023/10/02 04:21:52;;;;;;;;;;;;;;;7.71;87.38;99457.66;105728;1255;72635;-22
2023/10/02 04:24:26;;;;;;;7.20;2.80;;;;;;;7.47;88.63;99459.80;105681;1256;61061;-22
2023/10/02 04:27:14;;;;;;;;;;;;;;;7.32;89.43;99458.01;105901;1250;61157;-22
2023/10/02 04:30:05;;;;;;;6.30;2.40;;;;;;;7.85;89.06;99457.83;105902;1257;73857;-22
2023/10/02 04:32:32;;;;;;;7.40;2.80;;;;;;;8.31;86.79;99459.77;105870;1257;74381;-22
2023/10/02 04:35:02;;;;;;;6.30;2.10;;;;;;;8.29;85.96;99456.08;106012;1253;72336;-22
2023/10/02 04:37:36;;;;;;;4.80;2.60;;;;;;;8.08;86.41;99456.68;105843;1257;61049;-23
2023/10/02 04:40:16;;;;;;;4.60;2.60;;;;;;;7.84;86.97;99464.65;105943;1253;61935;-22
2023/10/02 04:43:09;;;;;;;4.70;2.20;;;;;;;7.59;88.40;99469.10;105965;1251;73661;-22
2023/10/02 04:45:36;;;;;;;4.00;2.20;;;;;;;8.06;88.85;99465.84;106071;1257;74741;-22
2023/10/02 04:48:09;;;;;;;7.70;2.10;;;;;;;8.43;86.90;99462.78;105746;1256;72647;-22
2023/10/02 04:50:45;;;;;;;6.50;2.60;;;;;;;8.45;86.52;99466.75;105851;1251;61079;-22
2023/10/02 04:55:42;;;;;;;6.80;2.60;;;;;;;8.20;87.58;99471.02;105932;1257;73655;-22
2023/10/02 04:58:18;;;;;;;4.10;1.90;;;;;;;8.14;88.44;99472.25;106050;1254;74378;-22
2023/10/02 05:03:31;;;;;;;4.70;2.20;;;;;;;9.27;84.58;99480.71;105620;1254;61032;-22
2023/10/02 05:05:59;;;;;;;8.60;2.20;;;;;;;9.27;83.18;99479.84;105731;1251;61173;-23
2023/10/02 05:09:21;;;;;;;5.40;2.30;;;;;;;9.09;83.12;99484.52;105618;1251;73802;-24
2023/10/02 05:11:52;;;;;;;7.40;2.80;;;;;;;8.79;83.61;99479.10;105847;1256;74255;-23
2023/10/02 05:14:29;;;;;;;5.10;1.90;;;;;;;8.60;84.74;99485.23;105911;1251;72656;-24
2023/10/02 05:17:16;;;;;;;5.50;2.10;;;;;;;9.01;84.53;99485.45;105643;1257;61055;-21
2023/10/02 05:19:57;;;;;;;5.10;2.20;;;;;;;9.33;82.76;99495.70;105922;1254;61205;-23
2023/10/02 05:22:27;;;;;;;5.20;2.20;;;;;;;9.22;83.11;99508.13;105754;1257;73846;-23
2023/10/02 05:25:04;;;;;;;4.30;2.20;;;;;;;9.00;84.12;99503.98;105722;1251;73102;-22
2023/10/02 05:27:33;;;;;;;7.40;2.30;;;;;;;8.83;85.22;99509.32;105825;1251;72647;-23
2023/10/02 05:30:05;;;;;;;9.40;1.90;;;;;;;8.63;87.26;99524.98;105627;1251;61927;-23
2023/10/02 05:32:32;;;;;;;9.50;2.50;;;;;;;8.99;88.24;99522.26;105716;1254;61177;-23
2023/10/02 05:35:16;;;;;;;4.80;2.20;;;;;;;9.39;86.54;99521.98;105845;1257;73970;-23
2023/10/02 05:37:45;;;;;;;7.80;2.40;;;;;;;9.48;85.77;99519.46;106070;1253;74421;-23
2023/10/02 05:50:59;;;;;;;9.30;2.70;;;;;;;9.96;85.53;99536.23;105944;1257;74193;-23
2023/10/02 05:53:29;;;;;;;7.10;2.50;;;;;;;9.98;85.26;99539.58;105899;1255;71471;-23
2023/10/02 05:56:05;;;;;;;6.20;2.50;;;;;;;9.80;85.97;99538.92;105742;1256;61115;-22
2023/10/02 05:58:37;;;;;;;11.60;3.60;;;;;;;9.65;86.53;99539.80;105872;1251;61169;-22
2023/10/02 06:01:06;;;;;;;3.60;1.90;;;;;;;9.55;87.36;99539.96;105799;1257;73665;-22
2023/10/02 06:03:34;;;;;;;3.50;2.20;;;;;;;10.04;86.15;99543.33;105973;1252;73550;-22
2023/10/02 06:06:15;;;;;;;5.80;2.00;;;;;;;10.47;84.71;99545.01;105943;1257;71742;-22
2023/10/02 06:08:49;;;;;;;9.90;2.70;;;;;;;10.35;83.20;99544.94;105910;1251;61509;-22
2023/10/02 06:11:26;;;;;;;5.30;2.40;;;;;;;10.20;84.00;99548.76;105642;1256;61170;-23
2023/10/02 06:13:58;;;;;;;6.70;2.50;;;;;;;10.10;84.88;99551.08;105860;1251;74362;-22
2023/10/02 06:16:29;;;;;;;6.50;2.40;;;;;;;10.10;85.39;99547.42;105671;1258;74384;-22
2023/10/02 06:19:02;;;;;;;3.40;1.80;;;;;;;10.44;84.49;99546.25;105971;1257;72646;-22
2023/10/02 06:22:20;;;;;;;7.20;2.30;;;;;;;10.80;82.38;99544.44;106016;1251;61176;-23
2023/10/02 06:24:27;;;;;;;9.20;2.70;;;;;;;10.66;82.13;99546.52;105825;1254;61621;-23
2023/10/02 06:26:57;;;;;;;6.90;2.40;;;;;;;10.59;83.18;99550.71;106058;1251;73831;-23
2023/10/02 06:29:25;;;;;;;6.70;2.40;;;;;;;10.42;83.29;99551.59;105990;1251;74442;-22
2023/10/02 06:31:58;;;;;;;5.10;1.90;;;;;;;10.45;84.08;99547.39;105911;1251;72767;-22
2023/10/02 06:34:33;;;;;;;6.60;3.00;;;;;;;11.01;82.41;99553.30;106028;1254;61109;-23
2023/10/02 06:37:07;;;;;;;6.60;2.60;;;;;;;11.26;80.72;99557.89;105993;1249;61167;-23
2023/10/02 06:39:37;;;;;;;;;;;;;;;11.26;79.98;99555.11;106064;1251;73592;-23
2023/10/02 06:42:04;;;;;;;6.50;2.00;;;;;;;11.12;81.08;99554.09;105926;1257;74325;-22
2023/10/02 06:44:41;;;;;;;8.30;2.40;;;;;;;11.07;81.23;99554.76;106054;1251;72608;-23
2023/10/02 06:47:11;;;;;;;7.20;2.50;;;;;;;11.12;81.67;99556.03;106019;1251;62426;-22
2023/10/02 06:49:39;;;;;;;5.60;2.60;;;;;;;11.61;79.52;99561.29;105959;1257;61265;-22
2023/10/02 06:52:16;;;;;;;4.70;2.20;;;;;;;12.15;77.64;99560.81;105790;1251;74283;-23
2023/10/02 06:54:55;;;;;;;4.90;2.00;;;;;;;12.19;76.23;99564.63;106003;1256;74413;-22
2023/10/02 06:57:24;;;;;;;4.80;2.00;;;;;;;11.97;76.23;99560.13;105990;1255;72507;-23
2023/10/02 06:59:52;;;;;;;7.50;2.20;;;;;;;11.87;77.52;99566.48;105991;1257;61217;-23
2023/10/02 07:02:20;;;;;;;9.90;2.30;;;;;;;11.86;77.71;99571.20;106061;1254;61169;-23
2023/10/02 07:04:48;;;;;;;6.10;2.40;;;;;;;11.75;77.33;99571.52;105992;1256;73838;-23
2023/10/02 07:07:26;;;;;;;3.80;1.60;;;;;;;11.60;77.61;99570.96;105955;1255;74163;-23
2023/10/02 07:09:55;;;;;;;3.80;2.20;;;;;;;12.15;76.22;99575.91;105940;1250;72894;-23
2023/10/02 07:12:27;;;;;;;6.20;2.10;;;;;;;12.50;74.70;99571.55;105811;1254;61089;-23
2023/10/02 07:15:10;;;;;;;6.00;1.90;;;;;;;12.59;74.60;99584.63;105786;1251;62100;-23
2023/10/02 07:17:47;;;;;;;6.00;2.40;;;;;;;12.66;74.67;99583.94;105810;1251;73855;-23
2023/10/02 07:20:20;;;;;;;5.50;2.50;;;;;;;12.50;74.77;99586.40;105825;1250;74053;-23
2023/10/02 07:22:48;;;;;;;6.10;2.40;;;;;;;12.50;74.94;99589.66;105798;1251;72601;-23
2023/10/02 07:25:24;;;;;;;6.40;2.30;;;;;;;12.44;75.62;99600.11;105999;1253;61171;-23
2023/10/02 07:27:51;;;;;;;6.20;2.10;;;;;;;12.54;75.37;99601.02;106063;1254;61154;-23
2023/10/02 07:30:25;;;;;;;4.90;2.10;;;;;;;12.97;73.02;99599.27;106018;1251;74438;-23
2023/10/02 07:32:53;;;;;;;6.70;2.50;;;;;;;13.30;71.62;99596.75;105928;1251;74400;-23
2023/10/02 07:35:23;;;;;;;6.40;2.70;;;;;;;13.40;71.02;99597.84;106041;1251;72446;-23
2023/10/02 07:38:00;;;;;;;6.90;2.20;;;;;;;13.33;71.48;99600.16;106027;1251;61177;-23
2023/10/02 07:40:46;;;;;;;7.80;2.30;;;;;;;13.27;71.80;99595.08;106038;1254;61167;-23
2023/10/02 07:43:16;;;;;;;6.60;2.10;;;;;;;13.10;71.92;99598.61;105927;1254;73944;-23
2023/10/02 07:46:06;;;;;;;6.50;2.30;;;;;;;12.98;72.84;99604.13;105854;1251;74365;-23
2023/10/02 07:48:35;;;;;;;4.90;2.00;;;;;;;13.12;72.12;99613.96;105903;1251;71538;-23
2023/10/02 07:51:03;;;;;;;5.00;2.30;;;;;;;13.08;72.06;99613.21;105809;1251;61137;-23
2023/10/02 07:53:39;;;;;;;6.00;2.30;;;;;;;13.12;72.17;99611.64;105741;1255;61146;-23
2023/10/02 07:56:07;;;;;;;6.60;2.50;;;;;;;13.04;71.95;99610.61;105752;1251;72882;-23
2023/10/02 07:58:35;;;;;;;5.40;2.50;;;;;;;13.01;72.36;99612.27;105656;1257;74611;-23
2023/10/02 08:01:11;;;;;;;10.70;3.00;;;;;;;13.02;72.23;99606.23;105838;1254;72743;-22
2023/10/02 08:03:49;;;;;;;5.10;2.30;;;;;;;13.11;71.98;99606.52;105644;1251;61038;-24
2023/10/02 08:06:21;;;;;;;6.20;2.20;;;;;;;13.13;71.53;99606.71;105940;1257;61096;-22
2023/10/02 08:11:53;;;;;;;5.90;1.70;;;;;;;13.18;71.26;99603.85;105960;1254;74326;-23
2023/10/02 08:17:21;;;;;;;7.40;2.60;;;;;;;13.47;70.56;99612.40;105556;1252;61086;-23
2023/10/02 08:19:59;;;;;;;7.30;2.30;;;;;;;13.62;70.14;99609.80;105824;1255;61130;-22
2023/10/02 08:22:35;;;;;;;5.20;1.90;;;;;;;13.57;69.66;99613.05;105906;1251;73724;-22
2023/10/02 08:25:04;;;;;;;8.20;2.10;;;;;;;13.60;69.96;99609.94;105687;1251;74198;-23
2023/10/02 08:27:32;;;;;;;4.50;2.20;;;;;;;13.88;69.07;99608.63;105717;1254;74448;-23
2023/10/02 08:30:01;;;;;;;8.60;2.30;;;;;;;13.82;67.76;99602.48;105879;1254;61835;-22
2023/10/02 08:32:28;;;;;;;7.80;2.50;;;;;;;13.76;67.73;99606.52;105691;1258;61163;-23
2023/10/02 08:34:57;;;;;;;4.20;1.60;;;;;;;13.93;66.76;99605.05;105965;1251;73864;-24
2023/10/02 08:37:25;;;;;;;6.10;2.00;;;;;;;14.20;66.52;99600.13;105766;1251;74337;-25
2023/10/02 08:39:52;;;;;;;5.80;1.60;;;;;;;14.47;65.56;99594.98;105956;1251;72716;-24
2023/10/02 08:42:24;;;;;;;5.30;1.70;;;;;;;14.63;64.52;99590.88;106060;1251;62029;-24
2023/10/02 08:44:58;;;;;;;5.10;1.90;;;;;;;14.80;63.95;99595.33;105610;1260;61145;-25
2023/10/02 08:47:25;;;;;;;7.50;2.30;;;;;;;14.96;62.90;99598.47;105605;1257;74613;-24
2023/10/02 08:50:03;;;;;;;5.60;2.30;;;;;;;14.89;62.86;99593.71;105802;1251;74286;-23
2023/10/02 08:52:47;;;;;;;7.40;2.50;;;;;;;14.86;62.34;99589.63;105764;1254;72685;-24
2023/10/02 08:55:33;;;;;;;5.50;2.00;;;;;;;15.14;61.92;99598.74;105713;1255;61317;-23
2023/10/02 08:58:16;;;;;;;5.50;2.20;;;;;;;15.52;60.53;99596.02;105699;1256;61154;-23
2023/10/02 09:03:42;;;;;;;4.90;2.10;;;;;;;15.86;59.63;99588.95;105764;1251;75109;-23
2023/10/02 09:24:27;;;;;;;7.10;2.20;;;;;;;16.20;54.08;99603.15;102683;1290;600236;-23
2023/10/02 09:35:10;;;;;;;9.00;2.10;;;;;;;16.05;54.86;99605.20;102590;1294;615102;-21
2023/10/02 09:38:06;;;;;;;3.80;1.70;;;;;;;16.23;53.06;99593.16;105140;1264;61172;-22
2023/10/02 09:40:54;;;;;;;9.40;2.20;;;;;;;16.01;53.77;99597.01;104873;1270;61058;-23
2023/10/02 09:43:23;;;;;;;6.40;2.10;;;;;;;15.76;54.04;99605.16;105085;1269;72228;-24
2023/10/02 09:45:55;;;;;;;4.80;1.90;;;;;;;15.61;54.63;99602.27;104885;1264;74920;-24
2023/10/02 09:48:53;;;;;;;3.50;2.10;;;;;;;15.69;54.95;99607.20;102666;1264;3172979;-24
2023/10/02 09:51:26;;;;;;;4.00;1.90;;;;;;;15.43;54.34;99603.45;105222;1265;61062;-23
2023/10/02 09:54:32;;;;;;;7.40;2.60;;;;;;;15.29;54.77;99599.36;105222;1267;61065;-23
2023/10/02 09:57:05;;;;;;;16.20;8.40;;;;;;;16.03;53.62;99601.73;105154;1269;72414;-23
2023/10/02 09:59:46;;;;;;;5.80;2.50;;;;;;;16.65;51.30;99593.70;105207;1263;75815;-23
2023/10/02 10:10:47;;;;;;;6.90;2.20;;;;;;;17.85;47.82;99593.45;105234;1269;72924;-23
2023/10/02 10:13:37;;;;;;;8.60;2.70;;;;;;;17.63;46.68;99588.02;105216;1264;75749;-23
2023/10/02 10:16:20;;;;;;;4.30;2.30;;;;;;;17.59;46.49;99600.13;104900;1269;73121;-23
2023/10/02 10:21:55;;;;;;;8.60;2.30;;;;;;;17.42;46.86;99601.58;105143;1269;61098;-23
2023/10/02 10:24:31;;;;;;;5.40;2.10;;;;;;;17.06;48.38;99607.77;105238;1264;72986;-23
2023/10/02 10:26:58;;;;;;;4.70;2.20;;;;;;;16.72;49.36;99609.80;105231;1267;74597;-22
2023/10/02 10:29:41;;;;;;;5.60;2.00;;;;;;;16.62;50.00;99608.67;105155;1267;72659;-23
2023/10/02 10:32:16;;;;;;;6.30;2.10;;;;;;;16.91;48.79;99609.25;105019;1264;61885;-23
2023/10/02 10:35:12;;;;;;;6.60;2.40;;;;;;;17.21;47.95;99599.39;104842;1270;61192;-23
2023/10/02 10:37:47;;;;;;;4.50;2.10;;;;;;;17.93;47.22;99597.44;105399;1257;74268;-22
2023/10/02 10:40:51;;;;;;;5.90;2.10;;;;;;;18.22;46.39;99596.55;105402;1260;75589;-24
2023/10/02 10:43:18;;;;;;;4.20;2.00;;;;;;;18.05;45.38;99592.65;105118;1263;72618;-23
2023/10/02 10:45:48;;;;;;;5.90;2.30;;;;;;;17.76;45.15;99605.99;105008;1263;61740;-23
2023/10/02 10:48:24;;;;;;;7.60;2.50;;;;;;;18.05;44.57;99605.73;105064;1266;61198;-24
2023/10/02 10:51:06;;;;;;;5.50;2.20;;;;;;;18.29;43.63;99605.06;104952;1268;72982;-23
2023/10/02 10:53:33;;;;;;;4.80;2.10;;;;;;;18.43;42.62;99604.36;104907;1269;73250;-23
2023/10/02 10:56:05;;;;;;;5.00;1.80;;;;;;;18.67;42.29;99599.61;105011;1263;72831;-23
2023/10/02 10:58:34;;;;;;;6.00;2.40;;;;;;;18.53;42.92;99596.83;104806;1264;61122;-23
2023/10/02 11:01:13;;;;;;;7.10;2.70;;;;;;;18.49;43.60;99597.06;104880;1266;61095;-23
2023/10/02 11:03:41;;;;;;;3.60;1.90;;;;;;;18.46;44.17;99589.34;104912;1264;73410;-23
2023/10/02 11:06:15;;;;;;;6.20;2.40;;;;;;;18.31;43.30;99601.61;105137;1264;74126;-23
2023/10/02 11:08:44;;;;;;;6.80;2.60;;;;;;;18.38;43.23;99599.31;104833;1264;72858;-23
2023/10/02 11:11:18;;;;;;;6.30;2.50;;;;;;;18.44;42.98;99597.11;104921;1267;61291;-23
2023/10/02 11:13:51;;;;;;;9.30;2.00;;;;;;;18.56;42.67;99598.45;104763;1269;61282;-23
2023/10/02 11:16:37;;;;;;;6.30;1.70;;;;;;;18.98;42.80;99602.30;104943;1263;72845;-23
2023/10/02 11:19:21;;;;;;;3.70;1.90;;;;;;;18.99;42.72;99605.69;105618;1257;75627;-23
2023/10/02 11:22:15;;;;;;;6.40;2.00;;;;;;;18.57;42.52;99612.09;105576;1257;71811;-23
2023/10/02 11:24:53;;;;;;;6.70;2.40;;;;;;;18.08;43.17;99612.04;105155;1264;61528;-23
2023/10/02 11:27:21;;;;;;;6.90;2.20;;;;;;;17.67;44.27;99613.20;105504;1260;61150;-23
2023/10/02 11:30:02;;;;;;;5.50;2.50;;;;;;;17.67;44.26;99612.14;105261;1258;73130;-23
2023/10/02 11:32:53;;;;;;;6.70;2.40;;;;;;;18.09;44.09;99602.77;105558;1257;74403;-23
2023/10/02 11:35:21;;;;;;;5.60;2.20;;;;;;;17.87;44.30;99598.50;105511;1258;71652;-22
2023/10/02 11:37:49;;;;;;;5.60;2.40;;;;;;;17.59;45.00;99599.59;105626;1260;61048;-21
2023/10/02 11:40:16;;;;;;;7.30;2.50;;;;;;;17.22;44.75;99602.62;105569;1260;61170;-25
2023/10/02 11:42:43;;;;;;;13.20;2.40;;;;;;;17.11;45.07;99596.86;105515;1260;72318;-22
2023/10/02 11:45:11;;;;;;;5.30;2.10;;;;;;;17.47;44.69;99589.94;105549;1257;74637;-22
2023/10/02 11:47:38;;;;;;;6.70;2.30;;;;;;;17.85;43.93;99582.13;105585;1257;72533;-22
2023/10/02 11:50:06;;;;;;;6.70;3.70;;;;;;;17.93;43.81;99571.02;105327;1256;61085;-23
2023/10/02 11:52:33;;;;;;;6.40;2.60;;;;;;;18.17;43.47;99571.08;105814;1256;61393;-23
2023/10/02 11:55:00;;;;;;;7.50;2.50;;;;;;;18.16;43.90;99574.20;105924;1254;73042;-23
2023/10/02 11:57:28;;;;;;;4.40;2.10;;;;;;;18.00;44.21;99575.99;105722;1254;74739;-23
2023/10/02 11:59:55;;;;;;;9.40;2.90;;;;;;;17.77;44.54;99572.19;105764;1254;72605;-22
2023/10/02 12:02:22;;;;;;;6.30;2.70;;;;;;;17.44;45.22;99577.77;105603;1257;61672;-23
2023/10/02 12:04:52;;;;;;;5.60;2.00;;;;;;;17.30;45.86;99577.80;105755;1256;61102;-22
2023/10/02 12:07:19;;;;;;;10.40;2.70;;;;;;;17.48;45.37;99578.77;105843;1254;72817;-22
2023/10/02 12:09:47;;;;;;;6.00;2.50;;;;;;;17.71;44.73;99576.27;105840;1256;74268;-23
2023/10/02 12:12:14;;;;;;;7.90;3.00;;;;;;;17.95;44.24;99572.98;105904;1253;72643;-22
2023/10/02 12:14:43;;;;;;;13.30;3.00;;;;;;;18.24;43.17;99572.41;105805;1258;61087;-22
2023/10/02 12:17:14;;;;;;;6.90;2.70;;;;;;;18.39;43.02;99574.70;105891;1256;61064;-22
2023/10/02 12:19:42;;;;;;;6.00;2.40;;;;;;;18.07;44.32;99582.50;105725;1253;71945;-22
2023/10/02 12:22:09;;;;;;;8.90;2.80;;;;;;;17.74;45.12;99578.59;105838;1257;73134;-23
2023/10/02 12:24:36;;;;;;;5.90;2.70;;;;;;;17.61;45.20;99578.88;105621;1254;72456;-22
2023/10/02 12:27:10;;;;;;;12.50;3.80;;;;;;;17.45;44.93;99580.38;105739;1252;61128;-23
2023/10/02 12:29:38;;;;;;;8.80;3.60;;;;;;;17.47;44.44;99580.98;105906;1252;61472;-22
2023/10/02 12:32:05;;;;;;;10.00;3.90;;;;;;;17.62;44.11;99578.05;105637;1255;72874;-23
2023/10/02 12:34:33;;;;;;;5.20;2.70;;;;;;;17.51;44.67;99574.65;105731;1254;75720;-24
2023/10/02 12:37:02;;;;;;;8.40;2.50;;;;;;;17.66;44.32;99572.75;105737;1253;72750;-23
2023/10/02 12:39:30;;;;;;;6.40;2.60;;;;;;;17.21;45.43;99571.88;105875;1253;61049;-24
2023/10/02 12:41:57;;;;;;;5.80;2.40;;;;;;;16.95;46.31;99567.41;105832;1257;61477;-24
2023/10/02 12:44:24;;;;;;;8.10;2.90;;;;;;;17.31;45.89;99568.61;105894;1254;73721;-24
2023/10/02 12:46:51;;;;;;;6.20;2.90;;;;;;;17.35;45.59;99567.17;105942;1254;74258;-25
2023/10/02 12:49:20;;;;;;;8.50;2.50;;;;;;;17.29;45.70;99567.02;105745;1254;73044;-24
2023/10/02 12:51:50;;;;;;;8.00;3.00;;;;;;;17.34;45.19;99563.87;105577;1254;61077;-23
2023/10/02 12:54:16;;;;;;;6.70;2.70;;;;;;;17.49;44.36;99557.77;105738;1254;61152;-26
2023/10/02 12:56:45;;;;;;;8.50;3.10;;;;;;;17.53;43.54;99556.52;105918;1254;72997;-24
2023/10/02 12:59:12;;;;;;;6.50;2.90;;;;;;;17.57;43.56;99561.55;105758;1257;74905;-23
2023/10/02 13:01:40;;;;;;;9.90;2.90;;;;;;;17.77;43.58;99564.25;105876;1254;72350;-23
2023/10/02 13:04:08;;;;;;;5.60;2.20;;;;;;;17.73;43.62;99564.19;105870;1254;61055;-22
2023/10/02 13:06:35;;;;;;;7.60;3.20;;;;;;;17.66;43.12;99553.64;105922;1256;61176;-23
2023/10/02 13:09:10;;;;;;;6.60;2.70;;;;;;;17.56;43.38;99555.49;105961;1256;73491;-23
2023/10/02 13:11:39;;;;;;;7.50;3.20;;;;;;;17.36;43.46;99548.63;105915;1254;75804;-23
2023/10/02 13:14:11;;;;;;;7.20;2.40;;;;;;;17.33;44.13;99552.58;105855;1254;71216;-23
2023/10/02 13:16:42;;;;;;;9.60;3.20;;;;;;;17.20;44.40;99550.23;105717;1255;61228;-23
2023/10/02 13:19:09;;;;;;;7.90;3.00;;;;;;;17.27;44.62;99555.16;105868;1253;61187;-22
2023/10/02 13:21:51;;;;;;;9.30;3.00;;;;;;;17.31;44.02;99549.45;105547;1254;72833;-23
2023/10/02 13:24:23;;;;;;;6.50;2.70;;;;;;;17.18;44.53;99553.95;105521;1254;74337;-24
2023/10/02 13:26:50;;;;;;;9.20;3.10;;;;;;;17.16;44.90;99561.99;105597;1254;72661;-23
2023/10/02 13:29:22;;;;;;;7.90;2.90;;;;;;;17.35;43.97;99556.94;105716;1257;61628;-22
2023/10/02 13:31:51;;;;;;;6.70;2.70;;;;;;;17.28;43.65;99554.50;105642;1254;61123;-23
2023/10/02 13:34:20;;;;;;;10.00;2.50;;;;;;;17.17;43.88;99554.38;105560;1254;72764;-24
2023/10/02 13:36:47;;;;;;;7.80;2.70;;;;;;;17.20;44.05;99558.66;105483;1254;74077;-24
2023/10/02 13:39:17;;;;;;;9.20;2.50;;;;;;;17.23;44.16;99557.98;105762;1254;74281;-23
2023/10/02 13:41:45;;;;;;;8.40;2.40;;;;;;;17.34;44.03;99561.60;105690;1254;61793;-23
2023/10/02 13:44:12;;;;;;;9.70;3.20;;;;;;;17.38;43.58;99558.73;105530;1257;61407;-23
2023/10/02 13:46:39;;;;;;;10.80;3.60;;;;;;;17.33;44.29;99571.34;105607;1254;73078;-23
2023/10/02 13:49:08;;;;;;;4.50;2.60;;;;;;;17.31;43.79;99575.04;105776;1254;74284;-23
2023/10/02 13:51:37;;;;;;;6.60;2.40;;;;;;;17.11;44.25;99577.04;105760;1253;72343;-24
2023/10/02 13:54:04;;;;;;;8.30;2.90;;;;;;;17.00;44.60;99577.66;105756;1254;61121;-23
2023/10/02 13:56:35;;;;;;;6.40;2.90;;;;;;;16.90;44.89;99581.89;105661;1258;61270;-23
2023/10/02 13:59:03;;;;;;;6.10;2.40;;;;;;;16.71;45.33;99584.70;105775;1254;71585;-24
2023/10/02 14:01:32;;;;;;;6.20;2.70;;;;;;;16.58;45.37;99583.90;105643;1254;74367;-24
2023/10/02 14:04:01;;;;;;;6.80;2.90;;;;;;;16.53;45.65;99582.48;105741;1254;72452;-23
2023/10/02 14:06:28;;;;;;;9.10;2.70;;;;;;;16.55;45.64;99581.31;105756;1254;61048;-22
2023/10/02 14:08:57;;;;;;;6.70;2.50;;;;;;;16.59;45.66;99579.73;105531;1257;61102;-25
2023/10/02 14:11:25;;;;;;;7.10;2.60;;;;;;;16.62;45.58;99577.70;105673;1254;73815;-24
2023/10/02 14:14:00;;;;;;;7.70;3.20;;;;;;;16.62;45.36;99576.84;105561;1254;74743;-24
2023/10/02 14:16:27;;;;;;;5.90;2.30;;;;;;;16.57;45.64;99580.41;105652;1252;72822;-24
2023/10/02 14:18:56;;;;;;;6.40;2.60;;;;;;;16.57;45.51;99578.98;105616;1255;61150;-21